CCA1841 YMML-YPPH
Flight info
| Callsign | CCA1841 |
|---|---|
| Flight time | N/A |
| Altitude | 34000 |
| Route | ML H345 AD N640 KAMBI Q32 NODEV Q10 MALUP Q158 PH |
| Aircraft | B772/H-HSDE2E3FGHIJ5LORVWXY/LB1D1 |
Departure
| Time | 2026-05-05 12:18 |
|---|---|
| Airport | Melbourne Airport (YMML) |
Arrival
| Time | N/A |
|---|---|
| Airport | Perth International Airport (YPPH) |
| Time | Latitude | Longitude | Altitude | Speed | Heading |
|---|---|---|---|---|---|
| 2026-05-05 11:48 | -37.66770 | 144.84453 | 400 ft | 0 kts | 171° |
| 2026-05-05 12:08 | -37.66758 | 144.84451 | 400 ft | 2 kts | 171° |
| 2026-05-05 12:09 | -37.66743 | 144.84448 | 400 ft | 2 kts | 172° |
| 2026-05-05 12:09 | -37.66728 | 144.84445 | 400 ft | 2 kts | 172° |
| 2026-05-05 12:09 | -37.66713 | 144.84444 | 401 ft | 2 kts | 186° |
| 2026-05-05 12:09 | -37.66699 | 144.84448 | 401 ft | 2 kts | 203° |
| 2026-05-05 12:10 | -37.66686 | 144.84457 | 401 ft | 2 kts | 218° |
| 2026-05-05 12:10 | -37.66675 | 144.84471 | 402 ft | 2 kts | 234° |
| 2026-05-05 12:10 | -37.66668 | 144.84486 | 402 ft | 2 kts | 249° |
| 2026-05-05 12:10 | -37.66665 | 144.84500 | 403 ft | 0 kts | 261° |
| 2026-05-05 12:11 | -37.66665 | 144.84505 | 403 ft | 0 kts | 262° |
| 2026-05-05 12:13 | -37.66665 | 144.84500 | 403 ft | 2 kts | 261° |
| 2026-05-05 12:13 | -37.66674 | 144.84428 | 401 ft | 15 kts | 261° |
| 2026-05-05 12:13 | -37.66701 | 144.84244 | 399 ft | 21 kts | 244° |
| 2026-05-05 12:13 | -37.66836 | 144.84203 | 396 ft | 22 kts | 171° |
| 2026-05-05 12:14 | -37.67001 | 144.84232 | 393 ft | 24 kts | 171° |
| 2026-05-05 12:14 | -37.67177 | 144.84265 | 389 ft | 26 kts | 172° |
| 2026-05-05 12:14 | -37.67364 | 144.84300 | 385 ft | 24 kts | 172° |
| 2026-05-05 12:14 | -37.67540 | 144.84332 | 381 ft | 26 kts | 171° |
| 2026-05-05 12:15 | -37.67733 | 144.84369 | 375 ft | 29 kts | 172° |
| 2026-05-05 12:15 | -37.67940 | 144.84407 | 369 ft | 31 kts | 172° |
| 2026-05-05 12:15 | -37.68104 | 144.84438 | 362 ft | 19 kts | 171° |
| 2026-05-05 12:15 | -37.68239 | 144.84464 | 357 ft | 18 kts | 171° |
| 2026-05-05 12:16 | -37.68371 | 144.84448 | 353 ft | 20 kts | 207° |
| 2026-05-05 12:16 | -37.68455 | 144.84381 | 350 ft | 11 kts | 213° |
| 2026-05-05 12:16 | -37.68530 | 144.84305 | 346 ft | 15 kts | 235° |
| 2026-05-05 12:16 | -37.68550 | 144.84244 | 346 ft | 3 kts | 258° |
| 2026-05-05 12:17 | -37.68549 | 144.84155 | 346 ft | 19 kts | 288° |
| 2026-05-05 12:17 | -37.68362 | 144.84065 | 352 ft | 47 kts | 351° |
| 2026-05-05 12:17 | -37.67715 | 144.83940 | 370 ft | 138 kts | 352° |
| 2026-05-05 12:17 | -37.66524 | 144.83714 | 531 ft | 199 kts | 351° |
| 2026-05-05 12:18 | -37.65071 | 144.83446 | 1684 ft | 216 kts | 350° |
| 2026-05-05 12:18 | -37.63706 | 144.83192 | 3345 ft | 210 kts | 349° |
| 2026-05-05 12:18 | -37.62208 | 144.82910 | 4457 ft | 233 kts | 349° |
| 2026-05-05 12:18 | -37.60464 | 144.82581 | 4970 ft | 284 kts | 350° |
| 2026-05-05 12:19 | -37.58287 | 144.82068 | 4998 ft | 348 kts | 341° |
| 2026-05-05 12:19 | -37.56018 | 144.80611 | 4834 ft | 367 kts | 323° |
| 2026-05-05 12:19 | -37.54187 | 144.78487 | 5069 ft | 365 kts | 309° |
| 2026-05-05 12:19 | -37.52819 | 144.75778 | 6218 ft | 368 kts | 294° |
| 2026-05-05 12:20 | -37.52034 | 144.72794 | 7743 ft | 357 kts | 280° |
| 2026-05-05 12:20 | -37.51906 | 144.69809 | 9177 ft | 345 kts | 266° |
| 2026-05-05 12:20 | -37.51987 | 144.66887 | 10531 ft | 334 kts | 270° |
| 2026-05-05 12:20 | -37.51809 | 144.63997 | 11591 ft | 334 kts | 277° |
| 2026-05-05 12:21 | -37.51354 | 144.61085 | 12184 ft | 347 kts | 282° |
| 2026-05-05 12:21 | -37.50728 | 144.58124 | 12977 ft | 354 kts | 284° |
| 2026-05-05 12:21 | -37.50063 | 144.55183 | 13888 ft | 357 kts | 285° |
| 2026-05-05 12:21 | -37.49366 | 144.52148 | 14749 ft | 362 kts | 285° |
| 2026-05-05 12:22 | -37.48662 | 144.49103 | 15586 ft | 367 kts | 285° |
| 2026-05-05 12:22 | -37.47949 | 144.46024 | 16436 ft | 372 kts | 285° |
| 2026-05-05 12:22 | -37.47224 | 144.42900 | 17265 ft | 377 kts | 285° |
| 2026-05-05 12:22 | -37.46490 | 144.39741 | 18087 ft | 382 kts | 286° |
| 2026-05-05 12:23 | -37.45746 | 144.36546 | 18864 ft | 387 kts | 286° |
| 2026-05-05 12:23 | -37.44986 | 144.33289 | 19663 ft | 392 kts | 287° |
| 2026-05-05 12:23 | -37.44208 | 144.29956 | 20494 ft | 397 kts | 286° |
| 2026-05-05 12:23 | -37.43432 | 144.26639 | 21257 ft | 402 kts | 286° |
| 2026-05-05 12:24 | -37.42642 | 144.23262 | 22027 ft | 407 kts | 286° |
| 2026-05-05 12:24 | -37.41839 | 144.19836 | 22775 ft | 412 kts | 287° |
| 2026-05-05 12:24 | -37.41023 | 144.16360 | 23441 ft | 419 kts | 287° |
| 2026-05-05 12:24 | -37.40193 | 144.12833 | 24111 ft | 425 kts | 287° |
| 2026-05-05 12:25 | -37.39354 | 144.09273 | 24922 ft | 427 kts | 287° |
| 2026-05-05 12:25 | -37.38519 | 144.05733 | 25700 ft | 429 kts | 287° |
| 2026-05-05 12:25 | -37.37666 | 144.02119 | 26454 ft | 432 kts | 287° |
| 2026-05-05 12:25 | -37.36818 | 143.98534 | 27106 ft | 436 kts | 287° |
| 2026-05-05 12:26 | -37.35950 | 143.94871 | 27763 ft | 440 kts | 287° |
| 2026-05-05 12:26 | -37.35074 | 143.91179 | 28426 ft | 443 kts | 287° |
| 2026-05-05 12:26 | -37.34192 | 143.87471 | 29066 ft | 446 kts | 287° |
| 2026-05-05 12:26 | -37.33300 | 143.83723 | 29709 ft | 448 kts | 287° |
| 2026-05-05 12:27 | -37.32421 | 143.80035 | 30487 ft | 446 kts | 287° |
| 2026-05-05 12:27 | -37.31531 | 143.76311 | 31392 ft | 441 kts | 287° |
| 2026-05-05 12:27 | -37.30667 | 143.72696 | 32224 ft | 437 kts | 287° |
| 2026-05-05 12:27 | -37.29793 | 143.69045 | 33047 ft | 433 kts | 287° |
| 2026-05-05 12:28 | -37.28932 | 143.65457 | 33810 ft | 429 kts | 287° |
| 2026-05-05 12:28 | -37.28072 | 143.61877 | 34196 ft | 431 kts | 287° |
| 2026-05-05 12:28 | -37.26317 | 143.54585 | 34222 ft | 428 kts | 287° |
| 2026-05-05 12:29 | -37.24579 | 143.47389 | 34224 ft | 428 kts | 287° |
| 2026-05-05 12:29 | -37.22526 | 143.40356 | 34219 ft | 427 kts | 297° |
| 2026-05-05 12:30 | -37.18993 | 143.34372 | 34220 ft | 428 kts | 315° |
| 2026-05-05 12:30 | -37.14299 | 143.29791 | 34222 ft | 429 kts | 319° |
| 2026-05-05 12:31 | -37.10472 | 143.24181 | 34220 ft | 426 kts | 300° |
| 2026-05-05 12:31 | -37.08421 | 143.17250 | 34219 ft | 427 kts | 281° |
| 2026-05-05 12:32 | -37.08403 | 143.09834 | 34217 ft | 430 kts | 262° |
| 2026-05-05 12:32 | -37.08970 | 143.02444 | 34229 ft | 429 kts | 273° |
| 2026-05-05 12:33 | -37.08254 | 142.95042 | 34225 ft | 425 kts | 282° |
| 2026-05-05 12:33 | -37.06831 | 142.87860 | 34229 ft | 427 kts | 287° |
| 2026-05-05 12:34 | -37.05063 | 142.80843 | 34225 ft | 425 kts | 289° |
| 2026-05-05 12:34 | -37.03102 | 142.73845 | 34225 ft | 426 kts | 290° |
| 2026-05-05 12:35 | -37.01058 | 142.66925 | 34226 ft | 426 kts | 290° |
| 2026-05-05 12:35 | -36.98967 | 142.60030 | 34216 ft | 425 kts | 291° |
| 2026-05-05 12:36 | -36.96843 | 142.53130 | 34230 ft | 425 kts | 291° |
| 2026-05-05 12:36 | -36.94712 | 142.46266 | 34233 ft | 424 kts | 291° |
| 2026-05-05 12:37 | -36.92579 | 142.39430 | 34221 ft | 424 kts | 291° |
| 2026-05-05 12:37 | -36.90433 | 142.32584 | 34238 ft | 423 kts | 291° |
| 2026-05-05 12:38 | -36.88289 | 142.25761 | 34233 ft | 421 kts | 291° |
| 2026-05-05 12:38 | -36.86143 | 142.18956 | 34239 ft | 421 kts | 291° |
| 2026-05-05 12:39 | -36.84008 | 142.12198 | 34239 ft | 421 kts | 291° |
| 2026-05-05 12:39 | -36.81854 | 142.05399 | 34238 ft | 422 kts | 291° |
| 2026-05-05 12:40 | -36.79703 | 141.98625 | 34243 ft | 422 kts | 291° |
| 2026-05-05 12:40 | -36.77540 | 141.91830 | 34229 ft | 422 kts | 291° |
| 2026-05-05 12:41 | -36.75384 | 141.85074 | 34230 ft | 422 kts | 291° |
| 2026-05-05 12:41 | -36.73215 | 141.78293 | 34220 ft | 421 kts | 291° |
| 2026-05-05 12:42 | -36.71044 | 141.71523 | 34224 ft | 420 kts | 291° |
| 2026-05-05 12:42 | -36.68859 | 141.64720 | 34230 ft | 419 kts | 291° |
| 2026-05-05 12:43 | -36.66676 | 141.57942 | 34221 ft | 419 kts | 291° |
| 2026-05-05 12:43 | -36.64489 | 141.51169 | 34220 ft | 420 kts | 291° |